Time;durP1;ratioP1;P1;durP2;ratioP2;P2;SDS_P1;SDS_P2;PMS_P1;PMS_P2;Temp;Humidity;BMP_temperature;BMP_pressure;BME280_temperature;BME280_humidity;BME280_pressure;Samples;Min_cycle;Max_cycle;Signal;HPM_P1;HPM_P2
2022/03/06 00:01:54;;;;;;;29.73;19.97;;;;;;;4.90;100.00;99426.44;5053257;28;20208;-66
2022/03/06 00:04:21;;;;;;;31.50;20.77;;;;;;;4.89;100.00;99414.59;5053217;28;20295;-66
2022/03/06 00:06:48;;;;;;;30.77;21.20;;;;;;;4.76;100.00;99398.59;5049951;28;20287;-75
2022/03/06 00:09:15;;;;;;;34.30;20.57;;;;;;;4.92;100.00;99413.72;5051575;28;20218;-74
2022/03/06 00:11:42;;;;;;;28.93;19.63;;;;;;;4.88;100.00;99412.09;5051105;28;20335;-75
2022/03/06 00:14:09;;;;;;;36.90;20.47;;;;;;;4.85;100.00;99414.66;5051871;28;20216;-74
2022/03/06 00:16:36;;;;;;;28.37;18.90;;;;;;;4.80;100.00;99407.03;5052165;28;20193;-75
2022/03/06 00:19:04;;;;;;;31.77;20.77;;;;;;;4.81;100.00;99400.28;5052089;28;20205;-75
2022/03/06 00:21:32;;;;;;;26.63;18.93;;;;;;;4.76;100.00;99401.16;5053815;28;20283;-75
2022/03/06 00:23:59;;;;;;;27.67;18.23;;;;;;;4.74;100.00;99405.41;5053543;28;20277;-75
2022/03/06 00:26:25;;;;;;;26.50;18.80;;;;;;;4.76;100.00;99410.44;5051767;28;20764;-75
2022/03/06 00:28:52;;;;;;;27.30;19.37;;;;;;;4.76;100.00;99410.44;5051964;28;20580;-75
2022/03/06 00:31:20;;;;;;;32.13;20.20;;;;;;;4.78;100.00;99412.13;5051848;28;20295;-74
2022/03/06 00:33:47;;;;;;;29.30;19.67;;;;;;;4.78;100.00;99413.84;5051583;28;20303;-74
2022/03/06 00:36:16;;;;;;;27.23;19.33;;;;;;;4.77;100.00;99409.59;5052154;28;20561;-74
2022/03/06 00:38:43;;;;;;;31.13;18.73;;;;;;;4.73;100.00;99403.72;5052200;28;20554;-75
2022/03/06 00:41:11;;;;;;;28.73;19.30;;;;;;;4.60;100.00;99396.16;5053594;28;20239;-75
2022/03/06 00:43:38;;;;;;;25.80;17.93;;;;;;;4.66;100.00;99406.28;5053532;28;20283;-75
2022/03/06 00:46:05;;;;;;;31.30;19.93;;;;;;;4.70;100.00;99398.66;5053191;28;20212;-75
2022/03/06 00:48:32;;;;;;;30.33;20.33;;;;;;;4.69;100.00;99396.09;5053456;28;20562;-75
2022/03/06 00:50:59;;;;;;;29.87;19.83;;;;;;;4.66;100.00;99399.50;5053551;28;20615;-75
2022/03/06 00:53:28;;;;;;;26.53;18.33;;;;;;;4.71;100.00;99394.41;5053166;28;20307;-74
2022/03/06 00:55:55;;;;;;;27.73;19.40;;;;;;;4.67;100.00;99388.50;5053183;28;20197;-75
2022/03/06 00:58:22;;;;;;;27.03;18.10;;;;;;;4.69;100.00;99388.50;5053567;28;20292;-74
2022/03/06 01:00:49;;;;;;;27.90;18.73;;;;;;;4.74;100.00;99399.47;5053191;28;20288;-75
2022/03/06 01:03:19;;;;;;;28.23;18.23;;;;;;;4.67;100.00;99387.66;5053536;28;20685;-75
2022/03/06 01:05:46;;;;;;;26.27;17.37;;;;;;;4.68;100.00;99394.44;5052965;28;20291;-75
2022/03/06 01:08:13;;;;;;;25.70;18.87;;;;;;;4.58;100.00;99382.66;5052849;28;20629;-75
2022/03/06 01:10:44;;;;;;;20.07;16.20;;;;;;;4.51;100.00;99386.09;5052207;28;20292;-75
2022/03/06 01:13:13;;;;;;;25.47;17.97;;;;;;;4.51;100.00;99383.53;5050580;28;20227;-73
2022/03/06 01:15:40;;;;;;;25.10;17.30;;;;;;;4.48;100.00;99393.72;5052841;28;20280;-74
2022/03/06 01:18:07;;;;;;;26.60;18.30;;;;;;;4.48;100.00;99386.09;5053110;28;20640;-74
2022/03/06 01:20:35;;;;;;;26.43;17.27;;;;;;;4.51;100.00;99381.00;5053038;28;20672;-72
2022/03/06 01:23:03;;;;;;;25.43;16.80;;;;;;;4.51;100.00;99381.00;5053234;28;20196;-74
2022/03/06 01:25:30;;;;;;;26.93;18.07;;;;;;;4.43;100.00;99378.50;5053002;28;20197;-74
2022/03/06 01:27:58;;;;;;;22.40;16.57;;;;;;;4.43;100.00;99385.28;5052644;28;20193;-74
2022/03/06 01:30:25;;;;;;;26.67;17.07;;;;;;;4.35;100.00;99377.72;5053011;28;20231;-73
2022/03/06 01:32:53;;;;;;;26.83;18.40;;;;;;;4.36;100.00;99378.56;5052695;28;20217;-74
2022/03/06 01:35:21;;;;;;;26.60;17.43;;;;;;;4.34;100.00;99373.47;5050353;28;20307;-74
2022/03/06 01:37:48;;;;;;;19.00;13.70;;;;;;;4.33;100.00;99376.88;5052482;28;20248;-74
2022/03/06 01:40:18;;;;;;;21.03;15.47;;;;;;;4.28;100.00;99363.38;5052423;28;20240;-74
2022/03/06 01:42:47;;;;;;;26.03;17.03;;;;;;;4.23;100.00;99365.91;5052587;28;20569;-74
2022/03/06 01:45:16;;;;;;;29.67;17.37;;;;;;;4.26;100.00;99376.94;5051149;28;20566;-74
2022/03/06 01:47:46;;;;;;;22.33;16.60;;;;;;;4.29;100.00;99374.38;5052412;28;20224;-73
2022/03/06 01:50:15;;;;;;;20.47;16.43;;;;;;;4.32;100.00;99369.28;5052321;28;20661;-74
2022/03/06 01:52:43;;;;;;;28.27;17.47;;;;;;;4.15;100.00;99354.13;5051902;28;20284;-74
2022/03/06 01:55:12;;;;;;;27.93;18.43;;;;;;;4.26;100.00;99379.47;5052072;28;20227;-74
2022/03/06 01:57:41;;;;;;;27.30;17.20;;;;;;;4.24;100.00;99377.78;5052308;28;20193;-74
2022/03/06 02:00:12;;;;;;;23.63;16.90;;;;;;;4.17;100.00;99367.66;5051817;28;20292;-74
2022/03/06 02:02:43;;;;;;;25.10;16.53;;;;;;;4.02;100.00;99355.91;5051515;28;20291;-74
2022/03/06 02:05:11;;;;;;;23.87;16.00;;;;;;;4.18;100.00;99372.72;5050408;28;20292;-74
2022/03/06 02:07:37;;;;;;;25.20;17.03;;;;;;;4.16;100.00;99374.44;5051304;28;20707;-74
2022/03/06 02:10:06;;;;;;;24.77;16.30;;;;;;;4.13;100.00;99378.69;5051968;28;20208;-74
2022/03/06 02:12:33;;;;;;;29.33;17.53;;;;;;;4.03;100.00;99365.19;5050051;28;20196;-74
2022/03/06 02:15:02;;;;;;;22.50;15.17;;;;;;;4.06;100.00;99377.88;5050935;28;20224;-73
2022/03/06 02:17:30;;;;;;;21.23;15.70;;;;;;;3.98;100.00;99361.81;5051867;28;20203;-74
2022/03/06 02:20:00;;;;;;;20.03;14.13;;;;;;;4.01;100.00;99388.84;5051928;28;20687;-73
2022/03/06 02:22:30;;;;;;;21.47;15.60;;;;;;;3.94;100.00;99382.16;5051675;28;20203;-74
2022/03/06 02:24:58;;;;;;;23.50;16.47;;;;;;;3.89;100.00;99384.69;5050897;28;20193;-73
2022/03/06 02:27:25;;;;;;;23.23;15.67;;;;;;;3.79;100.00;99357.69;5049461;28;20280;-74
2022/03/06 02:29:53;;;;;;;22.50;16.57;;;;;;;3.94;100.00;99382.16;5050029;28;20967;-74
2022/03/06 02:32:21;;;;;;;25.57;16.03;;;;;;;3.90;100.00;99391.47;5049592;28;20200;-74
2022/03/06 02:34:50;;;;;;;26.50;16.53;;;;;;;3.90;100.00;99380.47;5049543;28;20684;-74
2022/03/06 02:37:19;;;;;;;20.50;13.70;;;;;;;3.83;100.00;99389.78;5049198;28;20721;-74
2022/03/06 02:39:48;;;;;;;22.97;15.00;;;;;;;3.82;100.00;99388.09;5047997;28;20201;-73
2022/03/06 02:42:24;;;;;;;22.73;15.37;;;;;;;3.85;100.00;99385.53;5051339;28;20201;-73
2022/03/06 02:44:51;;;;;;;23.30;16.07;;;;;;;3.81;100.00;99386.44;5049360;28;20288;-74
2022/03/06 02:47:18;;;;;;;22.67;15.30;;;;;;;3.78;100.00;99381.34;5051211;28;20288;-74
2022/03/06 02:49:45;;;;;;;21.20;15.93;;;;;;;3.70;100.00;99388.13;5051160;28;20296;-74
2022/03/06 02:52:12;;;;;;;23.83;15.23;;;;;;;3.72;100.00;99385.63;5051144;28;20284;-74
2022/03/06 02:54:39;;;;;;;19.23;15.03;;;;;;;3.52;100.00;99362.84;5051159;28;20217;-73
2022/03/06 02:57:08;;;;;;;23.20;15.53;;;;;;;3.61;100.00;99390.72;5051170;28;20203;-73
2022/03/06 02:59:36;;;;;;;24.67;16.63;;;;;;;3.69;100.00;99394.03;5050996;28;20292;-73
2022/03/06 03:02:03;;;;;;;21.47;14.67;;;;;;;3.59;100.00;99382.25;5050544;28;20292;-74
2022/03/06 03:04:31;;;;;;;24.67;14.73;;;;;;;3.62;100.00;99394.91;5049955;28;20208;-73
2022/03/06 03:06:58;;;;;;;21.13;15.50;;;;;;;3.58;100.00;99388.19;5050986;28;20227;-73
2022/03/06 03:09:26;;;;;;;23.97;16.00;;;;;;;3.46;100.00;99380.56;5051051;28;20204;-73
2022/03/06 03:11:54;;;;;;;22.20;15.00;;;;;;;3.53;100.00;99394.94;5050891;28;20219;-73
2022/03/06 03:14:23;;;;;;;23.43;15.27;;;;;;;3.35;100.00;99380.63;5050971;28;20219;-73
2022/03/06 03:16:50;;;;;;;24.17;15.60;;;;;;;3.48;100.00;99391.56;5050976;28;20200;-74
2022/03/06 03:19:19;;;;;;;21.30;15.40;;;;;;;3.48;100.00;99391.56;5050787;28;20291;-73
2022/03/06 03:21:46;;;;;;;20.07;15.10;;;;;;;3.46;100.00;99403.38;5050976;28;20264;-74
2022/03/06 03:24:13;;;;;;;21.30;15.10;;;;;;;3.50;100.00;99394.94;5050208;28;20300;-73
2022/03/06 03:26:40;;;;;;;20.53;14.93;;;;;;;3.28;100.00;99375.56;5050565;28;20279;-74
2022/03/06 03:29:07;;;;;;;21.00;14.60;;;;;;;3.48;100.00;99406.78;5051092;28;20288;-74
2022/03/06 03:31:35;;;;;;;20.00;15.20;;;;;;;3.45;100.00;99411.84;5050780;28;20756;-73
2022/03/06 03:34:02;;;;;;;24.70;13.90;;;;;;;3.37;100.00;99411.00;5050467;28;20236;-74
2022/03/06 03:36:29;;;;;;;17.87;14.80;;;;;;;3.33;100.00;99411.88;5050441;28;20205;-73
2022/03/06 03:38:57;;;;;;;26.60;15.13;;;;;;;3.26;100.00;99405.97;5050673;28;20220;-73
2022/03/06 03:41:24;;;;;;;27.00;15.50;;;;;;;3.28;100.00;99408.50;5050799;28;20291;-72
2022/03/06 03:43:52;;;;;;;16.03;11.63;;;;;;;3.26;100.00;99407.66;5051316;28;20197;-73
2022/03/06 03:46:19;;;;;;;17.10;13.10;;;;;;;3.32;100.00;99402.59;5050931;28;20580;-74
2022/03/06 03:48:47;;;;;;;22.13;15.63;;;;;;;3.30;100.00;99409.31;5050454;28;20644;-73
2022/03/06 03:51:14;;;;;;;27.73;14.80;;;;;;;3.21;100.00;99396.66;5050979;28;20657;-73
2022/03/06 03:53:41;;;;;;;29.70;15.67;;;;;;;3.31;100.00;99413.56;5050595;28;20199;-73
2022/03/06 03:56:08;;;;;;;22.27;15.50;;;;;;;3.30;100.00;99411.84;5050327;28;20359;-73
2022/03/06 03:58:35;;;;;;;23.90;15.03;;;;;;;3.26;100.00;99410.19;5050124;28;20212;-72
2022/03/06 04:01:03;;;;;;;25.17;15.80;;;;;;;3.23;100.00;99416.13;5049747;28;20196;-73
2022/03/06 04:03:31;;;;;;;26.90;15.87;;;;;;;3.25;100.00;99428.75;5049959;28;20634;-73
2022/03/06 04:05:59;;;;;;;26.00;16.13;;;;;;;3.16;100.00;99409.34;5047817;28;20728;-73
2022/03/06 04:08:26;;;;;;;29.93;16.10;;;;;;;3.23;100.00;99420.31;5050535;28;20201;-73
2022/03/06 04:10:56;;;;;;;18.50;13.27;;;;;;;3.20;100.00;99415.25;5050399;28;20748;-73
2022/03/06 04:13:23;;;;;;;22.73;14.57;;;;;;;3.10;100.00;99415.25;5045455;28;20707;-74
2022/03/06 04:15:50;;;;;;;25.07;14.67;;;;;;;3.08;100.00;99401.75;5048468;28;20760;-73
2022/03/06 04:18:17;;;;;;;22.30;16.00;;;;;;;3.08;100.00;99411.88;5048518;28;20296;-73
2022/03/06 04:20:44;;;;;;;23.07;15.23;;;;;;;3.06;100.00;99413.56;5048737;28;20196;-72
2022/03/06 04:23:12;;;;;;;22.80;16.00;;;;;;;3.04;100.00;99412.72;5048608;28;20577;-73
2022/03/06 04:25:40;;;;;;;25.23;17.57;;;;;;;3.11;100.00;99422.00;5048945;28;20192;-73
2022/03/06 04:28:07;;;;;;;26.50;16.77;;;;;;;2.98;100.00;99416.94;5048506;28;20204;-73
2022/03/06 04:30:34;;;;;;;30.50;18.20;;;;;;;3.00;100.00;99417.78;5049386;28;20230;-73
2022/03/06 04:33:03;;;;;;;28.13;17.83;;;;;;;2.94;100.00;99413.56;5048692;28;20201;-73
2022/03/06 04:35:30;;;;;;;27.57;16.83;;;;;;;2.92;100.00;99412.72;5049756;28;20295;-73
2022/03/06 04:37:57;;;;;;;26.97;15.20;;;;;;;2.85;100.00;99413.56;5051963;28;20225;-73
2022/03/06 04:40:26;;;;;;;22.23;14.40;;;;;;;2.85;100.00;99412.69;5052130;28;20291;-73
2022/03/06 04:42:53;;;;;;;33.27;18.40;;;;;;;2.85;100.00;99413.56;5052000;28;20279;-72
2022/03/06 04:45:20;;;;;;;30.07;16.87;;;;;;;2.80;100.00;99409.34;5052118;28;20197;-73
2022/03/06 04:47:47;;;;;;;27.70;16.67;;;;;;;2.89;100.00;99405.13;5053443;28;20287;-73
2022/03/06 04:50:14;;;;;;;31.13;17.10;;;;;;;2.92;100.00;99419.47;5053535;28;20653;-73
2022/03/06 04:52:41;;;;;;;24.27;15.03;;;;;;;2.87;100.00;99411.88;5053619;28;20200;-72
2022/03/06 04:55:08;;;;;;;29.00;17.50;;;;;;;2.90;100.00;99406.81;5052172;28;20752;-72
2022/03/06 04:57:37;;;;;;;25.97;17.23;;;;;;;2.88;100.00;99418.63;5053287;28;20201;-72
2022/03/06 05:00:05;;;;;;;33.60;19.93;;;;;;;2.83;100.00;99410.19;5052884;28;20197;-72
2022/03/06 05:02:32;;;;;;;25.87;17.50;;;;;;;2.90;100.00;99421.16;5053650;28;20197;-73
2022/03/06 05:04:59;;;;;;;35.63;20.33;;;;;;;2.93;100.00;99418.63;5053349;28;20196;-72
2022/03/06 05:07:26;;;;;;;39.43;20.37;;;;;;;2.90;100.00;99431.28;5053279;28;20291;-73
2022/03/06 05:09:53;;;;;;;56.90;28.80;;;;;;;2.89;100.00;99427.91;5053427;28;20684;-73
2022/03/06 05:12:19;;;;;;;37.63;21.70;;;;;;;2.87;100.00;99429.59;5052983;28;20295;-73
2022/03/06 05:14:48;;;;;;;62.77;35.33;;;;;;;2.96;100.00;99434.66;5053357;28;20224;-72
2022/03/06 05:17:16;;;;;;;63.03;35.87;;;;;;;3.01;100.00;99435.50;5053203;28;20291;-72
2022/03/06 05:19:42;;;;;;;49.60;27.87;;;;;;;2.97;100.00;99433.81;5053050;28;20227;-73
2022/03/06 05:22:09;;;;;;;54.33;30.27;;;;;;;3.00;100.00;99438.91;5053120;28;20669;-73
2022/03/06 05:24:36;;;;;;;45.27;21.47;;;;;;;2.95;100.00;99439.72;5053010;28;20205;-73
2022/03/06 05:27:04;;;;;;;28.93;18.50;;;;;;;2.84;100.00;99419.47;5053020;28;20205;-73
2022/03/06 05:29:30;;;;;;;31.20;19.77;;;;;;;3.03;100.00;99438.91;5050429;28;20239;-73
2022/03/06 05:31:59;;;;;;;35.00;22.53;;;;;;;2.99;100.00;99439.75;5053244;28;20201;-73
2022/03/06 05:34:26;;;;;;;37.13;19.87;;;;;;;3.00;100.00;99436.38;5052688;28;20584;-73
2022/03/06 05:36:52;;;;;;;37.63;20.43;;;;;;;3.00;100.00;99443.13;5052964;28;20666;-73
2022/03/06 05:39:19;;;;;;;27.87;18.60;;;;;;;2.96;100.00;99442.28;5052598;28;20232;-72
2022/03/06 05:41:47;;;;;;;28.97;17.90;;;;;;;2.98;100.00;99440.56;5053022;28;20201;-73
2022/03/06 05:44:14;;;;;;;30.60;17.57;;;;;;;2.97;100.00;99438.88;5052730;28;20286;-72
2022/03/06 05:46:41;;;;;;;28.90;17.23;;;;;;;2.92;100.00;99438.03;5051532;28;20284;-73
2022/03/06 05:49:13;;;;;;;26.77;17.57;;;;;;;2.90;100.00;99437.19;5048405;28;20215;-72
2022/03/06 05:51:41;;;;;;;30.77;17.43;;;;;;;2.90;100.00;99433.81;5049980;28;20213;-73
2022/03/06 05:54:08;;;;;;;27.17;17.90;;;;;;;2.95;100.00;99450.69;5051672;28;20279;-72
2022/03/06 05:56:36;;;;;;;28.40;17.43;;;;;;;2.84;100.00;99427.06;5052255;28;20667;-72
2022/03/06 05:59:04;;;;;;;37.83;21.27;;;;;;;2.94;100.00;99454.06;5050374;28;20284;-73
2022/03/06 06:01:31;;;;;;;34.43;20.20;;;;;;;2.98;100.00;99449.84;5050288;28;20258;-72
2022/03/06 06:03:58;;;;;;;40.70;23.07;;;;;;;3.01;100.00;99457.44;5051629;28;20204;-73
2022/03/06 06:06:28;;;;;;;38.77;23.30;;;;;;;2.97;100.00;99459.13;5052139;28;20283;-72
2022/03/06 06:08:55;;;;;;;44.10;23.23;;;;;;;2.96;100.00;99457.47;5051467;28;20209;-73
2022/03/06 06:11:22;;;;;;;37.63;22.33;;;;;;;2.89;100.00;99455.75;5052119;28;20208;-73
2022/03/06 06:13:49;;;;;;;34.30;21.63;;;;;;;2.79;100.00;99432.94;5049442;28;20580;-73
2022/03/06 06:16:16;;;;;;;46.40;22.87;;;;;;;2.91;100.00;99454.06;5051914;28;20217;-73
2022/03/06 06:18:43;;;;;;;43.77;24.70;;;;;;;2.85;100.00;99453.22;5051363;28;20750;-73
2022/03/06 06:21:11;;;;;;;46.13;25.93;;;;;;;2.86;100.00;99455.75;5050185;28;20207;-73
2022/03/06 06:23:40;;;;;;;33.63;20.33;;;;;;;2.87;100.00;99454.91;5050737;28;20628;-72
2022/03/06 06:26:07;;;;;;;35.27;21.00;;;;;;;2.82;100.00;99455.72;5051257;28;20189;-73
2022/03/06 06:28:34;;;;;;;32.50;19.43;;;;;;;2.87;100.00;99454.91;5051886;28;20291;-73
2022/03/06 06:31:01;;;;;;;38.30;21.97;;;;;;;2.81;100.00;99461.66;5051171;28;20291;-72
2022/03/06 06:33:28;;;;;;;45.80;23.73;;;;;;;2.81;100.00;99452.34;5051477;28;20211;-73
2022/03/06 06:35:56;;;;;;;49.67;26.53;;;;;;;2.88;100.00;99460.81;5051115;28;20220;-72
2022/03/06 06:38:23;;;;;;;40.70;22.60;;;;;;;2.91;100.00;99460.84;5051340;28;20231;-73
2022/03/06 06:40:52;;;;;;;41.30;22.10;;;;;;;2.92;100.00;99465.88;5051365;28;20283;-72
2022/03/06 06:43:20;;;;;;;39.20;20.87;;;;;;;2.94;100.00;99466.72;5051241;28;20196;-73
2022/03/06 06:45:47;;;;;;;34.93;20.60;;;;;;;2.93;100.00;99469.28;5050809;28;20716;-73
2022/03/06 06:48:14;;;;;;;37.23;22.07;;;;;;;2.93;100.00;99470.13;5051179;28;20288;-73
2022/03/06 06:50:41;;;;;;;39.50;20.27;;;;;;;3.02;100.00;99470.13;5051721;28;20197;-72
2022/03/06 06:53:08;;;;;;;38.70;20.67;;;;;;;3.09;100.00;99479.41;5050023;28;20204;-73
2022/03/06 06:55:36;;;;;;;35.50;20.20;;;;;;;3.06;100.00;99471.81;5050069;28;20212;-72
2022/03/06 06:58:05;;;;;;;37.80;19.30;;;;;;;3.03;100.00;99473.50;5050801;28;20212;-72
2022/03/06 07:00:32;;;;;;;33.57;19.90;;;;;;;3.05;100.00;99475.19;5051074;28;20280;-72
2022/03/06 07:02:58;;;;;;;33.70;19.87;;;;;;;3.10;100.00;99473.50;5051109;28;20284;-73
2022/03/06 07:05:25;;;;;;;27.87;17.37;;;;;;;3.05;100.00;99471.81;5045788;28;20201;-72
2022/03/06 07:07:53;;;;;;;36.47;19.60;;;;;;;3.04;100.00;99475.19;5050749;28;20283;-72
2022/03/06 07:10:20;;;;;;;34.97;20.07;;;;;;;2.99;100.00;99467.59;5048722;28;20203;-72
2022/03/06 07:12:51;;;;;;;32.83;19.33;;;;;;;3.10;100.00;99470.97;5049857;28;20295;-72
2022/03/06 07:15:19;;;;;;;33.67;18.27;;;;;;;3.05;100.00;99456.63;5050229;28;20236;-73
2022/03/06 07:17:46;;;;;;;29.30;17.67;;;;;;;3.15;100.00;99469.28;5049867;28;20681;-72
2022/03/06 07:20:14;;;;;;;33.50;18.23;;;;;;;3.17;100.00;99474.34;5049692;28;20208;-72
2022/03/06 07:22:40;;;;;;;31.10;17.23;;;;;;;3.09;100.00;99465.91;5047665;28;20291;-72
2022/03/06 07:25:08;;;;;;;35.00;18.03;;;;;;;3.11;100.00;99467.59;5050169;28;20292;-73
2022/03/06 07:27:35;;;;;;;27.90;17.00;;;;;;;3.16;100.00;99473.53;5047175;28;20208;-72
2022/03/06 07:30:02;;;;;;;26.77;17.27;;;;;;;3.17;100.00;99480.25;5041525;28;20311;-73
2022/03/06 07:32:30;;;;;;;22.07;15.33;;;;;;;3.09;100.00;99471.81;5050225;28;20242;-72
2022/03/06 07:34:57;;;;;;;25.80;16.27;;;;;;;3.11;100.00;99477.72;5046706;28;20236;-73
2022/03/06 07:37:24;;;;;;;30.27;18.00;;;;;;;3.10;100.00;99460.00;5049723;28;20330;-73
2022/03/06 07:39:51;;;;;;;27.17;16.73;;;;;;;3.04;100.00;99458.28;5048344;28;20589;-73
2022/03/06 07:42:18;;;;;;;27.40;16.00;;;;;;;3.10;100.00;99465.91;5049795;28;20291;-73
2022/03/06 07:44:45;;;;;;;27.43;18.20;;;;;;;3.09;100.00;99466.75;5050147;28;20238;-72
2022/03/06 07:47:12;;;;;;;31.63;18.40;;;;;;;3.07;100.00;99478.56;5049887;28;20204;-73
2022/03/06 07:49:40;;;;;;;36.40;19.33;;;;;;;3.02;100.00;99465.06;5049667;28;20205;-72
2022/03/06 07:52:08;;;;;;;39.50;18.80;;;;;;;3.11;100.00;99477.72;5049018;28;20292;-73
2022/03/06 07:54:35;;;;;;;33.33;19.10;;;;;;;3.10;100.00;99486.16;5047699;28;20669;-73
2022/03/06 07:57:01;;;;;;;35.33;19.60;;;;;;;3.05;100.00;99470.13;5049154;28;20220;-73
2022/03/06 07:59:28;;;;;;;34.33;18.50;;;;;;;3.14;100.00;99467.59;5050332;28;20209;-73
2022/03/06 08:01:55;;;;;;;33.13;18.77;;;;;;;3.13;100.00;99473.50;5047092;28;20208;-73
2022/03/06 08:04:22;;;;;;;23.73;15.63;;;;;;;3.05;100.00;99462.53;5049456;28;20299;-73
2022/03/06 08:06:51;;;;;;;33.83;18.53;;;;;;;3.08;100.00;99477.72;5049307;28;20296;-72
2022/03/06 08:09:18;;;;;;;39.40;19.27;;;;;;;3.02;100.00;99457.47;5050521;28;20201;-73
2022/03/06 08:11:45;;;;;;;51.27;27.37;;;;;;;3.21;100.00;99472.66;5053264;28;20749;-73
2022/03/06 08:14:12;;;;;;;42.23;20.70;;;;;;;3.15;100.00;99471.81;5053837;28;20736;-72
2022/03/06 08:16:39;;;;;;;38.83;22.10;;;;;;;3.21;100.00;99470.13;5053347;28;20217;-73
2022/03/06 08:19:06;;;;;;;33.93;20.23;;;;;;;3.15;100.00;99476.03;5052996;28;20201;-73
2022/03/06 08:21:33;;;;;;;35.13;18.27;;;;;;;3.16;100.00;99478.59;5053096;28;20292;-73
2022/03/06 08:24:01;;;;;;;33.97;19.80;;;;;;;3.09;100.00;99476.88;5053237;28;20207;-73
2022/03/06 08:26:28;;;;;;;28.50;16.33;;;;;;;3.00;100.00;99474.34;5048499;28;20283;-73
2022/03/06 08:28:55;;;;;;;93.13;40.70;;;;;;;3.03;100.00;99479.41;5047218;28;20206;-72
2022/03/06 08:31:22;;;;;;;72.13;33.33;;;;;;;3.03;100.00;99474.34;5052210;28;20205;-73
2022/03/06 08:33:49;;;;;;;47.00;24.27;;;;;;;2.95;100.00;99476.00;5052172;28;20204;-73
2022/03/06 08:36:16;;;;;;;56.40;28.07;;;;;;;2.77;100.00;99455.75;5052667;28;20319;-73
2022/03/06 08:38:43;;;;;;;50.37;24.40;;;;;;;2.87;100.00;99472.63;5051154;28;20311;-73
2022/03/06 08:41:12;;;;;;;49.23;23.67;;;;;;;2.90;100.00;99470.13;5051465;28;20200;-72
2022/03/06 08:43:39;;;;;;;31.03;18.53;;;;;;;2.98;100.00;99475.16;5050392;28;20295;-73
2022/03/06 08:46:06;;;;;;;31.03;17.60;;;;;;;2.91;100.00;99459.13;5050170;28;20207;-73
2022/03/06 08:48:36;;;;;;;22.90;15.77;;;;;;;2.93;100.00;99474.34;5051050;28;20208;-73
2022/03/06 08:51:04;;;;;;;27.17;15.10;;;;;;;2.94;100.00;99483.63;5050010;28;20258;-73
2022/03/06 08:53:32;;;;;;;22.93;15.07;;;;;;;2.95;100.00;99475.16;5051842;28;20201;-73
2022/03/06 08:55:59;;;;;;;17.67;12.80;;;;;;;2.88;100.00;99484.44;5051943;28;20709;-73
2022/03/06 08:58:28;;;;;;;19.90;14.67;;;;;;;2.78;100.00;99482.72;5049311;28;20296;-73
2022/03/06 09:00:57;;;;;;;20.53;13.77;;;;;;;2.82;100.00;99486.97;5050033;28;20228;-73
2022/03/06 09:03:24;;;;;;;25.17;15.83;;;;;;;2.82;100.00;99489.50;5049047;28;20219;-72
2022/03/06 09:05:51;;;;;;;21.30;14.50;;;;;;;2.78;100.00;99477.66;5050314;28;20210;-73
2022/03/06 09:08:18;;;;;;;19.93;14.73;;;;;;;2.86;100.00;99481.06;5051435;28;20391;-73
2022/03/06 09:10:45;;;;;;;25.43;16.67;;;;;;;2.74;100.00;99481.06;5051961;28;20200;-73
2022/03/06 09:13:11;;;;;;;24.60;15.77;;;;;;;2.84;100.00;99487.81;5051640;28;20213;-73
2022/03/06 09:15:40;;;;;;;23.50;15.53;;;;;;;2.83;100.00;99495.41;5050156;28;20216;-73
2022/03/06 09:18:07;;;;;;;26.20;18.43;;;;;;;2.86;100.00;99496.25;5049642;28;20736;-73
2022/03/06 09:20:34;;;;;;;22.80;16.67;;;;;;;2.86;100.00;99490.34;5050244;28;20212;-73
2022/03/06 09:23:01;;;;;;;20.73;15.03;;;;;;;2.84;100.00;99497.97;5044772;28;20200;-73
2022/03/06 09:25:33;;;;;;;21.60;14.50;;;;;;;2.82;100.00;99493.72;5051219;28;20295;-72
2022/03/06 09:28:00;;;;;;;35.17;20.47;;;;;;;2.84;100.00;99503.03;5050774;28;20232;-73
2022/03/06 09:30:28;;;;;;;26.40;17.10;;;;;;;2.76;100.00;99499.59;5047625;28;20705;-71
2022/03/06 09:32:56;;;;;;;23.87;15.07;;;;;;;2.83;100.00;99501.31;5052116;28;20199;-71
2022/03/06 09:35:23;;;;;;;28.87;16.13;;;;;;;2.88;100.00;99498.78;5050092;28;20519;-71
2022/03/06 09:37:51;;;;;;;23.10;14.37;;;;;;;2.91;100.00;99497.09;5040137;28;20661;-72
2022/03/06 09:40:19;;;;;;;19.33;13.20;;;;;;;2.93;100.00;99497.13;5042143;28;20709;-71
2022/03/06 09:42:46;;;;;;;29.97;16.50;;;;;;;2.91;100.00;99493.75;5047726;28;20204;-72
2022/03/06 09:45:14;;;;;;;36.83;23.10;;;;;;;2.97;100.00;99481.91;5046472;28;20209;-72
2022/03/06 09:47:43;;;;;;;38.53;22.07;;;;;;;2.99;100.00;99481.94;5043708;28;20197;-71
2022/03/06 09:50:14;;;;;;;22.90;13.57;;;;;;;2.93;100.00;99487.84;5046761;28;20197;-71
2022/03/06 09:52:41;;;;;;;23.60;16.73;;;;;;;2.94;100.00;99483.63;5044355;28;20209;-71
2022/03/06 09:55:09;;;;;;;24.83;15.13;;;;;;;2.92;100.00;99486.13;5046620;28;20591;-71
2022/03/06 09:57:36;;;;;;;24.23;12.90;;;;;;;2.78;100.00;99480.19;5047395;28;20300;-71
2022/03/06 10:00:05;;;;;;;16.70;13.77;;;;;;;2.83;100.00;99476.00;5048368;28;20204;-72
2022/03/06 10:02:32;;;;;;;20.13;14.13;;;;;;;2.83;100.00;99480.22;5045208;28;20228;-72
2022/03/06 10:04:59;;;;;;;22.23;13.03;;;;;;;2.90;100.00;99487.84;5044371;28;20219;-71
2022/03/06 10:07:31;;;;;;;19.93;13.47;;;;;;;2.83;100.00;99481.06;5040172;28;20742;-72
2022/03/06 10:09:58;;;;;;;17.47;13.37;;;;;;;2.87;100.00;99487.84;5042713;28;20272;-71
2022/03/06 10:12:27;;;;;;;17.87;13.17;;;;;;;2.81;100.00;99487.78;5048220;28;20222;-72
2022/03/06 10:14:57;;;;;;;15.30;11.97;;;;;;;2.82;100.00;99479.38;5050096;28;20245;-72
2022/03/06 10:17:26;;;;;;;20.33;13.70;;;;;;;2.83;100.00;99475.16;5050585;28;20307;-71
2022/03/06 10:19:58;;;;;;;24.63;15.17;;;;;;;2.68;100.00;99454.88;5047206;28;20625;-72
2022/03/06 10:22:29;;;;;;;29.83;17.73;;;;;;;2.78;100.00;99481.91;5037305;28;20201;-72
2022/03/06 10:24:59;;;;;;;20.53;14.43;;;;;;;2.77;100.00;99475.16;5046862;28;20593;-71
2022/03/06 10:27:48;;;;;;;18.67;13.53;;;;;;;2.68;100.00;99465.84;5040647;28;20287;-72
2022/03/06 10:30:29;;;;;;;22.50;14.50;;;;;;;2.70;100.00;99468.38;5047970;28;20208;-71
2022/03/06 10:33:00;;;;;;;26.67;16.20;;;;;;;2.72;100.00;99477.66;5049927;28;20233;-72
2022/03/06 10:35:32;;;;;;;25.90;16.60;;;;;;;2.65;100.00;99481.00;5044578;28;20209;-72
2022/03/06 10:38:01;;;;;;;36.47;19.27;;;;;;;2.73;100.00;99484.41;5045479;28;20282;-72
2022/03/06 10:40:38;;;;;;;36.20;19.70;;;;;;;2.64;100.00;99479.34;5049049;28;20580;-71
2022/03/06 10:43:18;;;;;;;24.27;15.93;;;;;;;2.62;100.00;99479.31;5047398;28;20212;-72
2022/03/06 10:45:46;;;;;;;35.43;20.37;;;;;;;2.63;100.00;99483.53;5049097;28;20606;-72
2022/03/06 10:48:12;;;;;;;31.17;20.40;;;;;;;2.62;100.00;99481.00;5049773;28;20208;-70
2022/03/06 10:50:39;;;;;;;19.07;14.57;;;;;;;2.51;100.00;99462.44;5049705;28;20201;-71
2022/03/06 10:53:20;;;;;;;18.47;12.83;;;;;;;2.39;100.00;99458.16;5050561;28;21611;-71
2022/03/06 10:55:47;;;;;;;19.73;14.27;;;;;;;2.45;100.00;99467.47;5048475;28;20720;-71
2022/03/06 10:58:14;;;;;;;28.37;19.40;;;;;;;2.52;100.00;99459.06;5048845;28;20692;-71
2022/03/06 11:00:42;;;;;;;30.57;21.00;;;;;;;2.51;100.00;99467.47;5049625;28;20201;-71
2022/03/06 11:03:12;;;;;;;20.77;15.30;;;;;;;2.49;100.00;99464.09;5049700;28;20208;-71
2022/03/06 11:05:43;;;;;;;21.97;15.97;;;;;;;2.50;100.00;99463.25;5049971;28;20274;-71
2022/03/06 11:08:13;;;;;;;26.87;15.83;;;;;;;2.48;100.00;99454.81;5050441;28;20220;-71
2022/03/06 11:10:43;;;;;;;22.20;15.03;;;;;;;2.49;100.00;99453.97;5048810;28;20299;-71
2022/03/06 11:13:12;;;;;;;22.47;14.80;;;;;;;2.59;100.00;99445.56;5040074;28;20216;-72
2022/03/06 11:15:39;;;;;;;22.10;16.63;;;;;;;2.58;100.00;99438.84;5043879;28;20204;-72
2022/03/06 11:18:07;;;;;;;22.40;14.43;;;;;;;2.59;100.00;99436.28;5046904;28;20224;-72
2022/03/06 11:20:34;;;;;;;24.53;16.57;;;;;;;2.56;100.00;99430.38;5039587;28;20676;-70